sensor_id;sensor_type;location;lat;lon;timestamp;P1;durP1;ratioP1;P2;durP2;ratioP2
19049;SDS011;9657;45.940;12.840;2023-04-02T00:02:29;5.17;;;4.67;;
19049;SDS011;9657;45.940;12.840;2023-04-02T00:08:16;5.77;;;4.50;;
19049;SDS011;9657;45.940;12.840;2023-04-02T00:10:47;6.37;;;4.73;;
19049;SDS011;9657;45.940;12.840;2023-04-02T00:13:21;5.43;;;4.60;;
19049;SDS011;9657;45.940;12.840;2023-04-02T00:15:52;5.17;;;4.30;;
19049;SDS011;9657;45.940;12.840;2023-04-02T00:18:23;6.93;;;5.00;;
19049;SDS011;9657;45.940;12.840;2023-04-02T00:20:52;5.80;;;4.60;;
19049;SDS011;9657;45.940;12.840;2023-04-02T00:23:21;5.90;;;4.33;;
19049;SDS011;9657;45.940;12.840;2023-04-02T00:25:49;6.43;;;4.77;;
19049;SDS011;9657;45.940;12.840;2023-04-02T00:28:17;8.47;;;5.70;;
19049;SDS011;9657;45.940;12.840;2023-04-02T00:30:47;5.13;;;4.40;;
19049;SDS011;9657;45.940;12.840;2023-04-02T00:33:17;7.13;;;4.87;;
19049;SDS011;9657;45.940;12.840;2023-04-02T00:35:49;6.63;;;5.07;;
19049;SDS011;9657;45.940;12.840;2023-04-02T00:38:19;5.00;;;4.50;;
19049;SDS011;9657;45.940;12.840;2023-04-02T00:40:49;7.93;;;5.07;;
19049;SDS011;9657;45.940;12.840;2023-04-02T00:43:18;6.00;;;5.17;;
19049;SDS011;9657;45.940;12.840;2023-04-02T00:45:47;4.67;;;3.93;;
19049;SDS011;9657;45.940;12.840;2023-04-02T00:48:22;5.23;;;4.63;;
19049;SDS011;9657;45.940;12.840;2023-04-02T00:50:56;5.07;;;4.57;;
19049;SDS011;9657;45.940;12.840;2023-04-02T00:53:27;6.40;;;4.33;;
19049;SDS011;9657;45.940;12.840;2023-04-02T00:55:55;6.07;;;4.70;;
19049;SDS011;9657;45.940;12.840;2023-04-02T00:58:25;5.50;;;4.93;;
19049;SDS011;9657;45.940;12.840;2023-04-02T01:03:31;5.50;;;4.40;;
19049;SDS011;9657;45.940;12.840;2023-04-02T01:06:02;8.63;;;5.23;;
19049;SDS011;9657;45.940;12.840;2023-04-02T01:08:56;5.17;;;4.67;;
19049;SDS011;9657;45.940;12.840;2023-04-02T01:11:49;4.50;;;3.83;;
19049;SDS011;9657;45.940;12.840;2023-04-02T01:14:36;6.03;;;4.63;;
19049;SDS011;9657;45.940;12.840;2023-04-02T01:17:14;5.33;;;4.30;;
19049;SDS011;9657;45.940;12.840;2023-04-02T01:19:57;4.90;;;4.40;;
19049;SDS011;9657;45.940;12.840;2023-04-02T01:22:41;4.87;;;4.27;;
19049;SDS011;9657;45.940;12.840;2023-04-02T01:25:16;6.90;;;4.83;;
19049;SDS011;9657;45.940;12.840;2023-04-02T01:27:48;7.83;;;4.57;;
19049;SDS011;9657;45.940;12.840;2023-04-02T01:30:22;7.97;;;4.97;;
19049;SDS011;9657;45.940;12.840;2023-04-02T01:32:50;5.30;;;4.50;;
19049;SDS011;9657;45.940;12.840;2023-04-02T01:35:20;4.60;;;4.10;;
19049;SDS011;9657;45.940;12.840;2023-04-02T01:37:49;5.80;;;4.20;;
19049;SDS011;9657;45.940;12.840;2023-04-02T01:40:25;6.40;;;4.60;;
19049;SDS011;9657;45.940;12.840;2023-04-02T01:43:01;4.93;;;3.60;;
19049;SDS011;9657;45.940;12.840;2023-04-02T01:45:39;4.77;;;4.27;;
19049;SDS011;9657;45.940;12.840;2023-04-02T01:48:08;5.00;;;4.17;;
19049;SDS011;9657;45.940;12.840;2023-04-02T01:50:40;4.90;;;4.40;;
19049;SDS011;9657;45.940;12.840;2023-04-02T01:53:10;5.97;;;3.90;;
19049;SDS011;9657;45.940;12.840;2023-04-02T01:55:41;4.40;;;3.97;;
19049;SDS011;9657;45.940;12.840;2023-04-02T01:58:11;5.80;;;4.53;;
19049;SDS011;9657;45.940;12.840;2023-04-02T02:00:44;7.33;;;4.40;;
19049;SDS011;9657;45.940;12.840;2023-04-02T02:03:14;4.77;;;4.23;;
19049;SDS011;9657;45.940;12.840;2023-04-02T02:05:42;4.40;;;4.00;;
19049;SDS011;9657;45.940;12.840;2023-04-02T02:08:15;6.83;;;4.67;;
19049;SDS011;9657;45.940;12.840;2023-04-02T02:10:51;6.77;;;4.27;;
19049;SDS011;9657;45.940;12.840;2023-04-02T02:13:18;4.70;;;3.97;;
19049;SDS011;9657;45.940;12.840;2023-04-02T02:15:48;5.57;;;4.40;;
19049;SDS011;9657;45.940;12.840;2023-04-02T02:18:16;4.50;;;4.10;;
19049;SDS011;9657;45.940;12.840;2023-04-02T02:20:47;4.90;;;4.40;;
19049;SDS011;9657;45.940;12.840;2023-04-02T02:23:15;5.30;;;4.57;;
19049;SDS011;9657;45.940;12.840;2023-04-02T02:25:43;5.80;;;4.50;;
19049;SDS011;9657;45.940;12.840;2023-04-02T02:28:13;4.47;;;3.83;;
19049;SDS011;9657;45.940;12.840;2023-04-02T02:30:43;5.47;;;4.03;;
19049;SDS011;9657;45.940;12.840;2023-04-02T02:33:15;6.13;;;4.30;;
19049;SDS011;9657;45.940;12.840;2023-04-02T02:35:47;4.10;;;3.63;;
19049;SDS011;9657;45.940;12.840;2023-04-02T02:38:24;4.40;;;4.00;;
19049;SDS011;9657;45.940;12.840;2023-04-02T02:41:13;5.47;;;3.77;;
19049;SDS011;9657;45.940;12.840;2023-04-02T02:43:45;5.17;;;3.90;;
19049;SDS011;9657;45.940;12.840;2023-04-02T02:46:16;5.00;;;3.80;;
19049;SDS011;9657;45.940;12.840;2023-04-02T02:48:48;6.73;;;3.97;;
19049;SDS011;9657;45.940;12.840;2023-04-02T02:51:19;5.33;;;3.60;;
19049;SDS011;9657;45.940;12.840;2023-04-02T02:53:52;5.10;;;4.30;;
19049;SDS011;9657;45.940;12.840;2023-04-02T02:56:22;4.50;;;4.03;;
19049;SDS011;9657;45.940;12.840;2023-04-02T02:58:50;4.07;;;3.57;;
19049;SDS011;9657;45.940;12.840;2023-04-02T03:01:18;4.40;;;3.93;;
19049;SDS011;9657;45.940;12.840;2023-04-02T03:03:46;4.13;;;3.67;;
19049;SDS011;9657;45.940;12.840;2023-04-02T03:06:17;4.00;;;3.40;;
19049;SDS011;9657;45.940;12.840;2023-04-02T03:08:46;3.43;;;3.13;;
19049;SDS011;9657;45.940;12.840;2023-04-02T03:11:17;5.17;;;3.63;;
19049;SDS011;9657;45.940;12.840;2023-04-02T03:13:51;5.13;;;4.20;;
19049;SDS011;9657;45.940;12.840;2023-04-02T03:16:25;3.93;;;3.50;;
19049;SDS011;9657;45.940;12.840;2023-04-02T03:18:58;4.47;;;3.33;;
19049;SDS011;9657;45.940;12.840;2023-04-02T03:21:32;4.80;;;3.40;;
19049;SDS011;9657;45.940;12.840;2023-04-02T03:24:04;5.50;;;3.30;;
19049;SDS011;9657;45.940;12.840;2023-04-02T03:26:37;4.63;;;3.43;;
19049;SDS011;9657;45.940;12.840;2023-04-02T03:29:08;3.87;;;3.20;;
19049;SDS011;9657;45.940;12.840;2023-04-02T03:31:43;4.67;;;3.57;;
19049;SDS011;9657;45.940;12.840;2023-04-02T03:34:15;4.67;;;3.60;;
19049;SDS011;9657;45.940;12.840;2023-04-02T03:36:50;4.87;;;3.63;;
19049;SDS011;9657;45.940;12.840;2023-04-02T03:39:23;3.63;;;3.20;;
19049;SDS011;9657;45.940;12.840;2023-04-02T03:41:55;4.37;;;3.47;;
19049;SDS011;9657;45.940;12.840;2023-04-02T03:44:26;4.30;;;3.33;;
19049;SDS011;9657;45.940;12.840;2023-04-02T03:46:57;5.63;;;3.60;;
19049;SDS011;9657;45.940;12.840;2023-04-02T03:49:32;6.00;;;3.23;;
19049;SDS011;9657;45.940;12.840;2023-04-02T03:52:04;5.00;;;3.53;;
19049;SDS011;9657;45.940;12.840;2023-04-02T03:54:35;4.13;;;3.30;;
19049;SDS011;9657;45.940;12.840;2023-04-02T03:57:03;3.97;;;3.20;;
19049;SDS011;9657;45.940;12.840;2023-04-02T03:59:37;3.93;;;3.27;;
19049;SDS011;9657;45.940;12.840;2023-04-02T04:02:26;5.67;;;3.07;;
19049;SDS011;9657;45.940;12.840;2023-04-02T04:05:04;4.20;;;3.30;;
19049;SDS011;9657;45.940;12.840;2023-04-02T04:07:41;3.73;;;3.23;;
19049;SDS011;9657;45.940;12.840;2023-04-02T04:10:13;3.40;;;3.10;;
19049;SDS011;9657;45.940;12.840;2023-04-02T04:12:45;3.20;;;2.90;;
19049;SDS011;9657;45.940;12.840;2023-04-02T04:15:15;4.80;;;3.33;;
19049;SDS011;9657;45.940;12.840;2023-04-02T04:17:47;3.20;;;2.80;;
19049;SDS011;9657;45.940;12.840;2023-04-02T04:20:28;4.00;;;3.27;;
19049;SDS011;9657;45.940;12.840;2023-04-02T04:23:07;4.20;;;2.90;;
19049;SDS011;9657;45.940;12.840;2023-04-02T04:25:35;3.60;;;2.97;;
19049;SDS011;9657;45.940;12.840;2023-04-02T04:28:06;3.87;;;2.97;;
19049;SDS011;9657;45.940;12.840;2023-04-02T04:30:47;3.00;;;2.70;;
19049;SDS011;9657;45.940;12.840;2023-04-02T04:33:18;3.57;;;2.93;;
19049;SDS011;9657;45.940;12.840;2023-04-02T04:35:51;3.43;;;2.87;;
19049;SDS011;9657;45.940;12.840;2023-04-02T04:38:25;3.40;;;2.80;;
19049;SDS011;9657;45.940;12.840;2023-04-02T04:40:58;3.80;;;2.97;;
19049;SDS011;9657;45.940;12.840;2023-04-02T04:43:29;3.37;;;2.70;;
19049;SDS011;9657;45.940;12.840;2023-04-02T04:46:04;4.00;;;3.20;;
19049;SDS011;9657;45.940;12.840;2023-04-02T04:48:35;4.10;;;2.50;;
19049;SDS011;9657;45.940;12.840;2023-04-02T04:51:09;4.37;;;3.23;;
19049;SDS011;9657;45.940;12.840;2023-04-02T04:53:45;4.63;;;2.90;;
19049;SDS011;9657;45.940;12.840;2023-04-02T04:56:13;2.90;;;2.60;;
19049;SDS011;9657;45.940;12.840;2023-04-02T04:58:47;4.70;;;2.77;;
19049;SDS011;9657;45.940;12.840;2023-04-02T05:01:17;5.07;;;2.70;;
19049;SDS011;9657;45.940;12.840;2023-04-02T05:03:50;3.73;;;3.00;;
19049;SDS011;9657;45.940;12.840;2023-04-02T05:06:24;3.97;;;3.20;;
19049;SDS011;9657;45.940;12.840;2023-04-02T05:09:02;4.00;;;3.00;;
19049;SDS011;9657;45.940;12.840;2023-04-02T05:11:33;3.83;;;3.20;;
19049;SDS011;9657;45.940;12.840;2023-04-02T05:14:05;3.93;;;2.77;;
19049;SDS011;9657;45.940;12.840;2023-04-02T05:16:37;4.97;;;2.50;;
19049;SDS011;9657;45.940;12.840;2023-04-02T05:19:09;3.53;;;2.60;;
19049;SDS011;9657;45.940;12.840;2023-04-02T05:21:41;3.50;;;2.63;;
19049;SDS011;9657;45.940;12.840;2023-04-02T05:27:04;3.87;;;3.13;;
19049;SDS011;9657;45.940;12.840;2023-04-02T05:29:41;3.87;;;3.07;;
19049;SDS011;9657;45.940;12.840;2023-04-02T05:32:12;4.07;;;2.53;;
19049;SDS011;9657;45.940;12.840;2023-04-02T05:34:45;3.33;;;3.03;;
19049;SDS011;9657;45.940;12.840;2023-04-02T05:37:20;3.33;;;3.03;;
19049;SDS011;9657;45.940;12.840;2023-04-02T05:39:51;3.17;;;2.80;;
19049;SDS011;9657;45.940;12.840;2023-04-02T05:42:21;2.70;;;2.50;;
19049;SDS011;9657;45.940;12.840;2023-04-02T05:44:54;3.50;;;2.50;;
19049;SDS011;9657;45.940;12.840;2023-04-02T05:47:30;3.57;;;2.80;;
19049;SDS011;9657;45.940;12.840;2023-04-02T05:50:10;4.60;;;2.70;;
19049;SDS011;9657;45.940;12.840;2023-04-02T05:52:48;4.20;;;3.20;;
19049;SDS011;9657;45.940;12.840;2023-04-02T05:58:19;3.27;;;2.73;;
19049;SDS011;9657;45.940;12.840;2023-04-02T06:01:00;3.77;;;2.90;;
19049;SDS011;9657;45.940;12.840;2023-04-02T06:03:43;5.00;;;3.10;;
19049;SDS011;9657;45.940;12.840;2023-04-02T06:06:16;4.50;;;3.10;;
19049;SDS011;9657;45.940;12.840;2023-04-02T06:08:53;3.63;;;2.50;;
19049;SDS011;9657;45.940;12.840;2023-04-02T06:11:24;6.77;;;3.47;;
19049;SDS011;9657;45.940;12.840;2023-04-02T06:13:55;5.87;;;3.07;;
19049;SDS011;9657;45.940;12.840;2023-04-02T06:16:24;3.57;;;2.80;;
19049;SDS011;9657;45.940;12.840;2023-04-02T06:18:55;3.87;;;2.57;;
19049;SDS011;9657;45.940;12.840;2023-04-02T06:21:24;3.10;;;2.80;;
19049;SDS011;9657;45.940;12.840;2023-04-02T06:23:53;4.57;;;2.77;;
19049;SDS011;9657;45.940;12.840;2023-04-02T06:26:24;2.87;;;2.27;;
19049;SDS011;9657;45.940;12.840;2023-04-02T06:28:56;7.43;;;3.10;;
19049;SDS011;9657;45.940;12.840;2023-04-02T06:31:30;8.60;;;3.20;;
19049;SDS011;9657;45.940;12.840;2023-04-02T06:34:01;7.30;;;2.90;;
19049;SDS011;9657;45.940;12.840;2023-04-02T06:36:31;4.23;;;2.43;;
19049;SDS011;9657;45.940;12.840;2023-04-02T06:39:02;4.47;;;3.07;;
19049;SDS011;9657;45.940;12.840;2023-04-02T06:41:32;9.30;;;3.43;;
19049;SDS011;9657;45.940;12.840;2023-04-02T06:44:00;9.73;;;3.10;;
19049;SDS011;9657;45.940;12.840;2023-04-02T06:46:31;6.73;;;3.33;;
19049;SDS011;9657;45.940;12.840;2023-04-02T06:49:04;5.13;;;3.10;;
19049;SDS011;9657;45.940;12.840;2023-04-02T06:51:39;5.50;;;2.90;;
19049;SDS011;9657;45.940;12.840;2023-04-02T06:54:12;9.17;;;3.47;;
19049;SDS011;9657;45.940;12.840;2023-04-02T06:56:42;7.30;;;3.07;;
19049;SDS011;9657;45.940;12.840;2023-04-02T06:59:11;6.00;;;3.10;;
19049;SDS011;9657;45.940;12.840;2023-04-02T07:01:39;8.60;;;2.83;;
19049;SDS011;9657;45.940;12.840;2023-04-02T07:04:10;6.83;;;3.03;;
19049;SDS011;9657;45.940;12.840;2023-04-02T07:06:37;7.07;;;3.23;;
19049;SDS011;9657;45.940;12.840;2023-04-02T07:09:04;6.47;;;3.10;;
19049;SDS011;9657;45.940;12.840;2023-04-02T07:11:33;7.87;;;3.10;;
19049;SDS011;9657;45.940;12.840;2023-04-02T07:14:01;7.03;;;3.63;;
19049;SDS011;9657;45.940;12.840;2023-04-02T07:16:29;8.50;;;4.30;;
19049;SDS011;9657;45.940;12.840;2023-04-02T07:18:57;7.40;;;3.93;;
19049;SDS011;9657;45.940;12.840;2023-04-02T07:21:25;8.13;;;4.37;;
19049;SDS011;9657;45.940;12.840;2023-04-02T07:23:52;8.33;;;4.97;;
19049;SDS011;9657;45.940;12.840;2023-04-02T07:26:20;7.50;;;4.40;;
19049;SDS011;9657;45.940;12.840;2023-04-02T07:28:52;10.33;;;5.40;;
19049;SDS011;9657;45.940;12.840;2023-04-02T07:31:20;10.43;;;5.17;;
19049;SDS011;9657;45.940;12.840;2023-04-02T07:33:48;12.63;;;5.27;;
19049;SDS011;9657;45.940;12.840;2023-04-02T07:36:16;10.87;;;4.93;;
19049;SDS011;9657;45.940;12.840;2023-04-02T07:38:45;11.60;;;6.03;;
19049;SDS011;9657;45.940;12.840;2023-04-02T07:41:12;8.50;;;5.33;;
19049;SDS011;9657;45.940;12.840;2023-04-02T07:43:40;8.77;;;5.80;;
19049;SDS011;9657;45.940;12.840;2023-04-02T07:46:09;9.13;;;5.53;;
19049;SDS011;9657;45.940;12.840;2023-04-02T07:48:39;11.47;;;5.47;;
19049;SDS011;9657;45.940;12.840;2023-04-02T07:51:12;8.83;;;5.47;;
19049;SDS011;9657;45.940;12.840;2023-04-02T07:53:41;8.80;;;5.83;;
19049;SDS011;9657;45.940;12.840;2023-04-02T07:56:11;8.07;;;5.43;;
19049;SDS011;9657;45.940;12.840;2023-04-02T07:58:40;10.67;;;6.23;;
19049;SDS011;9657;45.940;12.840;2023-04-02T08:01:13;8.73;;;5.70;;
19049;SDS011;9657;45.940;12.840;2023-04-02T08:03:43;10.93;;;5.70;;
19049;SDS011;9657;45.940;12.840;2023-04-02T08:06:10;8.27;;;5.73;;
19049;SDS011;9657;45.940;12.840;2023-04-02T08:08:37;7.10;;;5.17;;
19049;SDS011;9657;45.940;12.840;2023-04-02T08:11:05;9.97;;;5.50;;
19049;SDS011;9657;45.940;12.840;2023-04-02T08:13:32;10.53;;;5.97;;
19049;SDS011;9657;45.940;12.840;2023-04-02T08:15:59;9.30;;;5.53;;
19049;SDS011;9657;45.940;12.840;2023-04-02T08:18:29;11.57;;;5.63;;
19049;SDS011;9657;45.940;12.840;2023-04-02T08:20:56;8.20;;;5.43;;
19049;SDS011;9657;45.940;12.840;2023-04-02T08:23:24;8.67;;;5.43;;
19049;SDS011;9657;45.940;12.840;2023-04-02T08:25:51;7.87;;;5.23;;
19049;SDS011;9657;45.940;12.840;2023-04-02T08:28:19;8.27;;;4.93;;
19049;SDS011;9657;45.940;12.840;2023-04-02T08:30:47;6.00;;;4.60;;
19049;SDS011;9657;45.940;12.840;2023-04-02T08:33:15;10.30;;;5.90;;
19049;SDS011;9657;45.940;12.840;2023-04-02T08:35:44;6.97;;;5.30;;
19049;SDS011;9657;45.940;12.840;2023-04-02T08:38:12;6.27;;;4.80;;
19049;SDS011;9657;45.940;12.840;2023-04-02T08:40:41;6.97;;;4.90;;
19049;SDS011;9657;45.940;12.840;2023-04-02T08:43:13;8.57;;;5.13;;
19049;SDS011;9657;45.940;12.840;2023-04-02T08:46:03;6.50;;;5.57;;
19049;SDS011;9657;45.940;12.840;2023-04-02T08:48:35;8.27;;;5.70;;
19049;SDS011;9657;45.940;12.840;2023-04-02T08:51:06;7.23;;;4.77;;
19049;SDS011;9657;45.940;12.840;2023-04-02T08:53:40;7.93;;;4.87;;
19049;SDS011;9657;45.940;12.840;2023-04-02T08:56:08;6.73;;;4.97;;
19049;SDS011;9657;45.940;12.840;2023-04-02T08:58:43;7.23;;;5.03;;
19049;SDS011;9657;45.940;12.840;2023-04-02T09:01:16;6.93;;;4.50;;
19049;SDS011;9657;45.940;12.840;2023-04-02T09:03:49;6.03;;;4.57;;
19049;SDS011;9657;45.940;12.840;2023-04-02T09:06:22;6.90;;;4.90;;
19049;SDS011;9657;45.940;12.840;2023-04-02T09:08:52;7.33;;;4.80;;
19049;SDS011;9657;45.940;12.840;2023-04-02T09:11:22;7.77;;;4.40;;
19049;SDS011;9657;45.940;12.840;2023-04-02T09:13:51;6.03;;;4.57;;
19049;SDS011;9657;45.940;12.840;2023-04-02T09:16:23;7.47;;;4.50;;
19049;SDS011;9657;45.940;12.840;2023-04-02T09:19:14;6.90;;;4.37;;
19049;SDS011;9657;45.940;12.840;2023-04-02T09:21:46;5.50;;;4.60;;
19049;SDS011;9657;45.940;12.840;2023-04-02T09:24:24;5.33;;;4.60;;
19049;SDS011;9657;45.940;12.840;2023-04-02T09:26:51;8.47;;;5.40;;
19049;SDS011;9657;45.940;12.840;2023-04-02T09:29:27;5.10;;;4.40;;
19049;SDS011;9657;45.940;12.840;2023-04-02T09:32:20;6.97;;;4.57;;
19049;SDS011;9657;45.940;12.840;2023-04-02T09:35:04;6.23;;;4.37;;
19049;SDS011;9657;45.940;12.840;2023-04-02T09:37:35;5.83;;;4.47;;
19049;SDS011;9657;45.940;12.840;2023-04-02T09:40:14;7.67;;;4.00;;
19049;SDS011;9657;45.940;12.840;2023-04-02T09:42:44;4.83;;;4.17;;
19049;SDS011;9657;45.940;12.840;2023-04-02T09:45:16;6.30;;;4.30;;
19049;SDS011;9657;45.940;12.840;2023-04-02T09:47:46;5.37;;;3.73;;
19049;SDS011;9657;45.940;12.840;2023-04-02T09:50:24;9.33;;;4.70;;
19049;SDS011;9657;45.940;12.840;2023-04-02T09:52:54;6.43;;;3.93;;
19049;SDS011;9657;45.940;12.840;2023-04-02T09:55:23;8.07;;;4.30;;
19049;SDS011;9657;45.940;12.840;2023-04-02T09:58:05;9.10;;;4.67;;
19049;SDS011;9657;45.940;12.840;2023-04-02T10:00:36;5.63;;;4.17;;
19049;SDS011;9657;45.940;12.840;2023-04-02T10:03:05;6.80;;;4.13;;
19049;SDS011;9657;45.940;12.840;2023-04-02T10:05:48;6.63;;;3.97;;
19049;SDS011;9657;45.940;12.840;2023-04-02T10:08:30;6.57;;;4.17;;
19049;SDS011;9657;45.940;12.840;2023-04-02T10:10:58;6.63;;;4.60;;
19049;SDS011;9657;45.940;12.840;2023-04-02T10:13:27;4.97;;;3.97;;
19049;SDS011;9657;45.940;12.840;2023-04-02T10:15:57;7.50;;;4.33;;
19049;SDS011;9657;45.940;12.840;2023-04-02T10:18:39;5.23;;;4.40;;
19049;SDS011;9657;45.940;12.840;2023-04-02T10:21:10;6.93;;;4.00;;
19049;SDS011;9657;45.940;12.840;2023-04-02T10:23:42;5.20;;;3.50;;
19049;SDS011;9657;45.940;12.840;2023-04-02T10:29:14;5.27;;;3.50;;
19049;SDS011;9657;45.940;12.840;2023-04-02T10:31:55;6.83;;;4.10;;
19049;SDS011;9657;45.940;12.840;2023-04-02T10:34:30;5.87;;;3.63;;
19049;SDS011;9657;45.940;12.840;2023-04-02T10:37:01;6.20;;;4.20;;
19049;SDS011;9657;45.940;12.840;2023-04-02T10:39:39;4.67;;;3.60;;
19049;SDS011;9657;45.940;12.840;2023-04-02T10:42:12;6.60;;;3.73;;
19049;SDS011;9657;45.940;12.840;2023-04-02T10:44:47;5.70;;;3.70;;
19049;SDS011;9657;45.940;12.840;2023-04-02T10:47:21;4.40;;;3.50;;
19049;SDS011;9657;45.940;12.840;2023-04-02T10:49:59;4.90;;;3.60;;
19049;SDS011;9657;45.940;12.840;2023-04-02T10:52:37;4.70;;;3.47;;
19049;SDS011;9657;45.940;12.840;2023-04-02T10:55:14;6.10;;;4.00;;
19049;SDS011;9657;45.940;12.840;2023-04-02T10:57:45;5.47;;;4.00;;
19049;SDS011;9657;45.940;12.840;2023-04-02T11:00:14;6.10;;;3.80;;
19049;SDS011;9657;45.940;12.840;2023-04-02T11:02:47;4.97;;;3.07;;
19049;SDS011;9657;45.940;12.840;2023-04-02T11:05:20;4.47;;;4.07;;
19049;SDS011;9657;45.940;12.840;2023-04-02T11:07:54;5.87;;;3.60;;
19049;SDS011;9657;45.940;12.840;2023-04-02T11:10:26;5.87;;;3.57;;
19049;SDS011;9657;45.940;12.840;2023-04-02T11:12:57;4.47;;;3.70;;
19049;SDS011;9657;45.940;12.840;2023-04-02T11:15:27;4.00;;;3.13;;
19049;SDS011;9657;45.940;12.840;2023-04-02T11:17:55;4.13;;;3.50;;
19049;SDS011;9657;45.940;12.840;2023-04-02T11:23:28;5.43;;;3.30;;
19049;SDS011;9657;45.940;12.840;2023-04-02T11:29:03;5.03;;;3.10;;
19049;SDS011;9657;45.940;12.840;2023-04-02T11:31:42;4.87;;;3.63;;
19049;SDS011;9657;45.940;12.840;2023-04-02T11:34:11;4.40;;;3.10;;
19049;SDS011;9657;45.940;12.840;2023-04-02T11:36:59;5.37;;;4.00;;
19049;SDS011;9657;45.940;12.840;2023-04-02T11:42:22;4.37;;;3.43;;
19049;SDS011;9657;45.940;12.840;2023-04-02T11:44:54;3.10;;;2.80;;
19049;SDS011;9657;45.940;12.840;2023-04-02T11:47:24;3.20;;;2.90;;
19049;SDS011;9657;45.940;12.840;2023-04-02T11:49:56;2.80;;;2.43;;
19049;SDS011;9657;45.940;12.840;2023-04-02T11:52:28;4.53;;;2.93;;
19049;SDS011;9657;45.940;12.840;2023-04-02T11:55:00;3.90;;;2.80;;
19049;SDS011;9657;45.940;12.840;2023-04-02T11:57:54;3.53;;;2.90;;
19049;SDS011;9657;45.940;12.840;2023-04-02T12:00:48;3.57;;;2.50;;
19049;SDS011;9657;45.940;12.840;2023-04-02T12:03:47;3.30;;;2.97;;
19049;SDS011;9657;45.940;12.840;2023-04-02T12:06:28;3.37;;;2.80;;
19049;SDS011;9657;45.940;12.840;2023-04-02T12:09:05;5.00;;;2.83;;
19049;SDS011;9657;45.940;12.840;2023-04-02T12:11:43;4.67;;;3.20;;
19049;SDS011;9657;45.940;12.840;2023-04-02T12:16:57;4.30;;;3.00;;
19049;SDS011;9657;45.940;12.840;2023-04-02T12:19:24;3.40;;;2.83;;
19049;SDS011;9657;45.940;12.840;2023-04-02T12:21:54;3.97;;;3.00;;
19049;SDS011;9657;45.940;12.840;2023-04-02T12:24:23;3.47;;;2.90;;
19049;SDS011;9657;45.940;12.840;2023-04-02T12:27:05;4.33;;;2.77;;
19049;SDS011;9657;45.940;12.840;2023-04-02T12:29:40;4.77;;;3.20;;
19049;SDS011;9657;45.940;12.840;2023-04-02T12:32:15;2.90;;;2.60;;
19049;SDS011;9657;45.940;12.840;2023-04-02T12:34:46;3.40;;;2.67;;
19049;SDS011;9657;45.940;12.840;2023-04-02T12:37:21;2.87;;;2.57;;
19049;SDS011;9657;45.940;12.840;2023-04-02T12:39:51;4.43;;;2.80;;
19049;SDS011;9657;45.940;12.840;2023-04-02T12:42:24;3.87;;;3.00;;
19049;SDS011;9657;45.940;12.840;2023-04-02T12:44:54;4.07;;;2.87;;
19049;SDS011;9657;45.940;12.840;2023-04-02T12:47:21;2.80;;;2.50;;
19049;SDS011;9657;45.940;12.840;2023-04-02T12:49:48;3.20;;;2.33;;
19049;SDS011;9657;45.940;12.840;2023-04-02T12:52:17;5.03;;;2.77;;
19049;SDS011;9657;45.940;12.840;2023-04-02T12:54:46;4.13;;;2.73;;
19049;SDS011;9657;45.940;12.840;2023-04-02T12:57:19;3.33;;;3.00;;
19049;SDS011;9657;45.940;12.840;2023-04-02T13:00:03;3.30;;;2.53;;
19049;SDS011;9657;45.940;12.840;2023-04-02T13:02:59;4.33;;;2.60;;
19049;SDS011;9657;45.940;12.840;2023-04-02T13:05:38;2.83;;;2.40;;
19049;SDS011;9657;45.940;12.840;2023-04-02T13:08:12;2.20;;;2.00;;
19049;SDS011;9657;45.940;12.840;2023-04-02T13:10:42;5.53;;;2.43;;
19049;SDS011;9657;45.940;12.840;2023-04-02T13:13:12;2.67;;;2.40;;
19049;SDS011;9657;45.940;12.840;2023-04-02T13:15:43;3.03;;;2.50;;
19049;SDS011;9657;45.940;12.840;2023-04-02T13:18:17;3.97;;;2.77;;
19049;SDS011;9657;45.940;12.840;2023-04-02T13:20:53;3.20;;;2.47;;
19049;SDS011;9657;45.940;12.840;2023-04-02T13:23:23;3.23;;;2.67;;
19049;SDS011;9657;45.940;12.840;2023-04-02T13:25:58;3.03;;;2.47;;
19049;SDS011;9657;45.940;12.840;2023-04-02T13:28:26;2.90;;;2.47;;
19049;SDS011;9657;45.940;12.840;2023-04-02T13:30:55;2.53;;;2.30;;
19049;SDS011;9657;45.940;12.840;2023-04-02T13:33:22;2.67;;;2.40;;
19049;SDS011;9657;45.940;12.840;2023-04-02T13:35:49;3.43;;;2.37;;
19049;SDS011;9657;45.940;12.840;2023-04-02T13:38:16;2.80;;;2.50;;
19049;SDS011;9657;45.940;12.840;2023-04-02T13:40:43;3.47;;;2.30;;
19049;SDS011;9657;45.940;12.840;2023-04-02T13:43:14;3.70;;;2.43;;
19049;SDS011;9657;45.940;12.840;2023-04-02T13:45:44;2.60;;;2.10;;
19049;SDS011;9657;45.940;12.840;2023-04-02T13:48:15;3.80;;;2.90;;
19049;SDS011;9657;45.940;12.840;2023-04-02T13:50:42;3.70;;;2.27;;
19049;SDS011;9657;45.940;12.840;2023-04-02T13:53:14;2.60;;;2.17;;
19049;SDS011;9657;45.940;12.840;2023-04-02T13:55:47;2.40;;;2.20;;
19049;SDS011;9657;45.940;12.840;2023-04-02T13:58:14;2.30;;;2.10;;
19049;SDS011;9657;45.940;12.840;2023-04-02T14:00:43;2.57;;;2.23;;
19049;SDS011;9657;45.940;12.840;2023-04-02T14:03:11;2.73;;;2.47;;
19049;SDS011;9657;45.940;12.840;2023-04-02T14:05:43;3.17;;;2.63;;
19049;SDS011;9657;45.940;12.840;2023-04-02T14:08:20;3.67;;;2.10;;
19049;SDS011;9657;45.940;12.840;2023-04-02T14:10:53;3.13;;;2.00;;
19049;SDS011;9657;45.940;12.840;2023-04-02T14:13:32;2.47;;;2.27;;
19049;SDS011;9657;45.940;12.840;2023-04-02T14:16:31;2.00;;;1.80;;
19049;SDS011;9657;45.940;12.840;2023-04-02T14:19:21;2.47;;;2.27;;
19049;SDS011;9657;45.940;12.840;2023-04-02T14:22:01;5.17;;;2.43;;
19049;SDS011;9657;45.940;12.840;2023-04-02T14:24:42;3.93;;;2.10;;
19049;SDS011;9657;45.940;12.840;2023-04-02T14:27:25;5.83;;;2.60;;
19049;SDS011;9657;45.940;12.840;2023-04-02T14:30:00;3.47;;;2.10;;
19049;SDS011;9657;45.940;12.840;2023-04-02T14:32:34;3.07;;;1.87;;
19049;SDS011;9657;45.940;12.840;2023-04-02T14:35:12;2.03;;;1.80;;
19049;SDS011;9657;45.940;12.840;2023-04-02T14:37:48;3.43;;;2.30;;
19049;SDS011;9657;45.940;12.840;2023-04-02T14:40:21;3.47;;;2.10;;
19049;SDS011;9657;45.940;12.840;2023-04-02T14:42:56;4.03;;;2.07;;
19049;SDS011;9657;45.940;12.840;2023-04-02T14:45:29;3.27;;;2.07;;
19049;SDS011;9657;45.940;12.840;2023-04-02T14:48:11;2.93;;;2.27;;
19049;SDS011;9657;45.940;12.840;2023-04-02T14:50:53;2.67;;;2.20;;
19049;SDS011;9657;45.940;12.840;2023-04-02T14:53:25;4.70;;;2.10;;
19049;SDS011;9657;45.940;12.840;2023-04-02T14:55:58;2.83;;;2.20;;
19049;SDS011;9657;45.940;12.840;2023-04-02T14:58:30;2.77;;;1.70;;
19049;SDS011;9657;45.940;12.840;2023-04-02T15:01:00;1.60;;;1.40;;
19049;SDS011;9657;45.940;12.840;2023-04-02T15:03:31;2.20;;;1.90;;
19049;SDS011;9657;45.940;12.840;2023-04-02T15:06:07;2.67;;;1.97;;
19049;SDS011;9657;45.940;12.840;2023-04-02T15:08:37;2.00;;;1.77;;
19049;SDS011;9657;45.940;12.840;2023-04-02T15:11:08;4.37;;;2.30;;
19049;SDS011;9657;45.940;12.840;2023-04-02T15:13:40;2.70;;;2.10;;
19049;SDS011;9657;45.940;12.840;2023-04-02T15:16:12;2.23;;;1.60;;
19049;SDS011;9657;45.940;12.840;2023-04-02T15:18:43;2.17;;;1.97;;
19049;SDS011;9657;45.940;12.840;2023-04-02T15:21:20;3.60;;;2.00;;
19049;SDS011;9657;45.940;12.840;2023-04-02T15:23:58;2.40;;;2.20;;
19049;SDS011;9657;45.940;12.840;2023-04-02T15:26:30;2.47;;;1.70;;
19049;SDS011;9657;45.940;12.840;2023-04-02T15:29:04;2.97;;;1.93;;
19049;SDS011;9657;45.940;12.840;2023-04-02T15:31:44;2.07;;;1.87;;
19049;SDS011;9657;45.940;12.840;2023-04-02T15:34:15;2.47;;;2.10;;
19049;SDS011;9657;45.940;12.840;2023-04-02T15:36:53;2.13;;;1.80;;
19049;SDS011;9657;45.940;12.840;2023-04-02T15:39:34;3.60;;;2.23;;
19049;SDS011;9657;45.940;12.840;2023-04-02T15:42:16;1.83;;;1.63;;
19049;SDS011;9657;45.940;12.840;2023-04-02T15:44:51;3.57;;;1.80;;
19049;SDS011;9657;45.940;12.840;2023-04-02T15:47:39;2.77;;;1.80;;
19049;SDS011;9657;45.940;12.840;2023-04-02T15:50:32;3.13;;;1.80;;